首页
METAR-TAF:

METAR-TAF

机场 :

英迪拉·甘地国际机场

新德里, 印度

纬度: 28-34N, 经度: 077-07E, 海拔: 220米

当前天气观测

该预报发布于29分钟前的15:00 UTC
风速4节,风向
温度 30°C
湿度 84%
气压 1002 hPa
能見度: 3000
散云层高于3500英尺
散云层高于10000英尺
轻雾

METAR: VIDP 161500Z 08004KT 3000 BR SCT035 SCT100 30/27 Q1002 NOSIG

时间: 20:59 (15:29 UTC)

预报

该预报发布于4小时和29分钟前的11:00 UTC
预报有效从16日的 12点(UTC)到 17日的 18点(UTC)
风速6节,风向西转西北
能見度: 3000
散云层高于3000英尺
多云层高于10000英尺
雨, 轻雾
短暂存在
从 16日的 12点(UTC)到 16日的 18点(UTC)
能見度: 1500
少量云层高于3500英尺, 积雨云.
阴天层高于8000英尺
雷暴, 雨
成为
从 16日的 20点(UTC)到 16日的 21点(UTC)
风速5节,风向西转西南
能見度: 2000
轻雾
短暂存在
从 16日的 22点(UTC)到 17日的 03点(UTC)
能見度: 1500
少量云层高于3500英尺, 积雨云.
雷暴, 雨
成为
从 17日的 05点(UTC)到 17日的 07点(UTC)
风速6节,风向东南
能見度: 3500
短暂存在
从 17日的 09点(UTC)到 17日的 13点(UTC)
少量云层高于3500英尺, 积雨云.
成为
从 17日的 15点(UTC)到 17日的 17点(UTC)
风速6节,风向
能見度: 2500
轻雾

TAF: VIDP 161100Z 1612/1718 29006KT 3000 RA BR SCT030 BKN100 TEMPO 1612/1618 1500 TSRA FEW035CB OVC080 BECMG 1620/1621 24005KT 2000 BR TEMPO 1622/1703 1500 TSRA FEW035CB BECMG 1705/1707 13006KT 3500 HZ TEMPO 1709/1713 FEW035CB BECMG 1715/1717 09006KT 2500 BR

超过4000个机场的气象观测和天气预报(METAR&TAF报告)。

可查询的气象台以黄色和红色小点在地图上表示。

将鼠标移到小点上方,可查看气象台名称。

然后点击查看天气观测和预报。

如需切换地图:点击带黑十字的绿色按钮放大地图;点击带横线的绿色按钮缩小地图;或者点击绿色箭头查看邻近地区的地图。


METAR-TAF: